sensor_id;sensor_type;location;lat;lon;timestamp;pressure;altitude;pressure_sealevel;temperature;humidity
5484;BME280;2764;48.794;8.326;2023-11-21T00:00:19;76428.72;;;-140.34;100.00
5484;BME280;2764;48.794;8.326;2023-11-21T00:01:23;76426.69;;;-140.34;100.00
5484;BME280;2764;48.794;8.326;2023-11-21T00:02:27;76438.78;;;-140.34;100.00
5484;BME280;2764;48.794;8.326;2023-11-21T00:03:32;76420.66;;;-140.34;100.00
5484;BME280;2764;48.794;8.326;2023-11-21T00:04:36;76432.75;;;-140.34;100.00
5484;BME280;2764;48.794;8.326;2023-11-21T00:05:46;76426.69;;;-140.34;100.00
5484;BME280;2764;48.794;8.326;2023-11-21T00:06:54;76424.69;;;-140.34;100.00
5484;BME280;2764;48.794;8.326;2023-11-21T00:07:57;76422.69;;;-140.34;100.00
5484;BME280;2764;48.794;8.326;2023-11-21T00:09:00;76418.66;;;-140.34;100.00
5484;BME280;2764;48.794;8.326;2023-11-21T00:10:03;76428.72;;;-140.34;100.00
5484;BME280;2764;48.794;8.326;2023-11-21T00:11:08;76420.66;;;-140.34;100.00
5484;BME280;2764;48.794;8.326;2023-11-21T00:12:10;76424.69;;;-140.34;100.00
5484;BME280;2764;48.794;8.326;2023-11-21T00:13:15;76418.66;;;-140.34;100.00
5484;BME280;2764;48.794;8.326;2023-11-21T00:14:18;76416.66;;;-140.34;100.00
5484;BME280;2764;48.794;8.326;2023-11-21T00:15:23;76416.66;;;-140.34;100.00
5484;BME280;2764;48.794;8.326;2023-11-21T00:16:25;76420.66;;;-140.34;100.00
5484;BME280;2764;48.794;8.326;2023-11-21T00:17:27;76420.66;;;-140.34;100.00
5484;BME280;2764;48.794;8.326;2023-11-21T00:18:30;76418.66;;;-140.34;100.00
5484;BME280;2764;48.794;8.326;2023-11-21T00:19:32;76404.59;;;-140.34;100.00
5484;BME280;2764;48.794;8.326;2023-11-21T00:20:35;76404.59;;;-140.34;100.00
5484;BME280;2764;48.794;8.326;2023-11-21T00:21:37;76406.59;;;-140.34;100.00
5484;BME280;2764;48.794;8.326;2023-11-21T00:22:39;76404.59;;;-140.34;100.00
5484;BME280;2764;48.794;8.326;2023-11-21T00:23:44;76400.56;;;-140.34;100.00
5484;BME280;2764;48.794;8.326;2023-11-21T00:24:47;76404.59;;;-140.34;100.00
5484;BME280;2764;48.794;8.326;2023-11-21T00:25:49;76404.59;;;-140.34;100.00
5484;BME280;2764;48.794;8.326;2023-11-21T00:26:51;76398.56;;;-140.34;100.00
5484;BME280;2764;48.794;8.326;2023-11-21T00:27:54;76390.50;;;-140.34;100.00
5484;BME280;2764;48.794;8.326;2023-11-21T00:28:56;76396.53;;;-140.34;100.00
5484;BME280;2764;48.794;8.326;2023-11-21T00:29:58;76398.56;;;-140.34;100.00
5484;BME280;2764;48.794;8.326;2023-11-21T00:31:00;76398.56;;;-140.34;100.00
5484;BME280;2764;48.794;8.326;2023-11-21T00:32:02;76402.56;;;-140.34;100.00
5484;BME280;2764;48.794;8.326;2023-11-21T00:33:04;76402.56;;;-140.34;100.00
5484;BME280;2764;48.794;8.326;2023-11-21T00:34:06;76402.56;;;-140.34;100.00
5484;BME280;2764;48.794;8.326;2023-11-21T00:35:10;76406.59;;;-140.34;100.00
5484;BME280;2764;48.794;8.326;2023-11-21T00:36:14;76406.59;;;-140.34;100.00
5484;BME280;2764;48.794;8.326;2023-11-21T00:37:16;76404.59;;;-140.34;100.00
5484;BME280;2764;48.794;8.326;2023-11-21T00:38:18;76400.56;;;-140.34;100.00
5484;BME280;2764;48.794;8.326;2023-11-21T00:39:21;76400.56;;;-140.34;100.00
5484;BME280;2764;48.794;8.326;2023-11-21T00:40:27;76402.56;;;-140.34;100.00
5484;BME280;2764;48.794;8.326;2023-11-21T00:41:30;76402.56;;;-140.34;100.00
5484;BME280;2764;48.794;8.326;2023-11-21T00:42:32;76394.53;;;-140.34;100.00
5484;BME280;2764;48.794;8.326;2023-11-21T00:43:36;76406.59;;;-140.34;100.00
5484;BME280;2764;48.794;8.326;2023-11-21T00:44:39;76396.53;;;-140.34;100.00
5484;BME280;2764;48.794;8.326;2023-11-21T00:45:42;76398.56;;;-140.34;100.00
5484;BME280;2764;48.794;8.326;2023-11-21T00:46:44;76398.56;;;-140.34;100.00
5484;BME280;2764;48.794;8.326;2023-11-21T00:47:46;76402.56;;;-140.34;100.00
5484;BME280;2764;48.794;8.326;2023-11-21T00:48:48;76406.59;;;-140.34;100.00
5484;BME280;2764;48.794;8.326;2023-11-21T00:49:49;76396.53;;;-140.34;100.00
5484;BME280;2764;48.794;8.326;2023-11-21T00:50:53;76404.59;;;-140.34;100.00
5484;BME280;2764;48.794;8.326;2023-11-21T00:51:54;76410.63;;;-140.34;100.00
5484;BME280;2764;48.794;8.326;2023-11-21T00:52:58;76398.56;;;-140.34;100.00
5484;BME280;2764;48.794;8.326;2023-11-21T00:54:00;76394.53;;;-140.34;100.00
5484;BME280;2764;48.794;8.326;2023-11-21T00:55:04;76394.53;;;-140.34;100.00
5484;BME280;2764;48.794;8.326;2023-11-21T00:56:06;76392.53;;;-140.34;100.00
5484;BME280;2764;48.794;8.326;2023-11-21T00:57:10;76406.59;;;-140.34;100.00
5484;BME280;2764;48.794;8.326;2023-11-21T00:58:13;76406.59;;;-140.34;100.00
5484;BME280;2764;48.794;8.326;2023-11-21T00:59:16;76402.56;;;-140.34;100.00
5484;BME280;2764;48.794;8.326;2023-11-21T01:00:18;76402.56;;;-140.34;100.00
5484;BME280;2764;48.794;8.326;2023-11-21T01:01:21;76392.53;;;-140.34;100.00
5484;BME280;2764;48.794;8.326;2023-11-21T01:02:24;76396.53;;;-140.34;100.00
5484;BME280;2764;48.794;8.326;2023-11-21T01:03:27;76390.50;;;-140.34;100.00
5484;BME280;2764;48.794;8.326;2023-11-21T01:04:29;76394.53;;;-140.34;100.00
5484;BME280;2764;48.794;8.326;2023-11-21T01:05:32;76396.53;;;-140.34;100.00
5484;BME280;2764;48.794;8.326;2023-11-21T01:06:34;76402.56;;;-140.34;100.00
5484;BME280;2764;48.794;8.326;2023-11-21T01:07:37;76410.63;;;-140.34;100.00
5484;BME280;2764;48.794;8.326;2023-11-21T01:08:43;76396.53;;;-140.34;100.00
5484;BME280;2764;48.794;8.326;2023-11-21T01:09:46;76400.56;;;-140.34;100.00
5484;BME280;2764;48.794;8.326;2023-11-21T01:10:48;76410.63;;;-140.34;100.00
5484;BME280;2764;48.794;8.326;2023-11-21T01:11:51;76408.59;;;-140.34;100.00
5484;BME280;2764;48.794;8.326;2023-11-21T01:12:53;76402.56;;;-140.34;100.00
5484;BME280;2764;48.794;8.326;2023-11-21T01:13:55;76400.56;;;-140.34;100.00
5484;BME280;2764;48.794;8.326;2023-11-21T01:14:57;76402.56;;;-140.34;100.00
5484;BME280;2764;48.794;8.326;2023-11-21T01:16:02;76394.53;;;-140.34;100.00
5484;BME280;2764;48.794;8.326;2023-11-21T01:17:05;76384.47;;;-140.34;100.00
5484;BME280;2764;48.794;8.326;2023-11-21T01:18:07;76388.50;;;-140.34;100.00
5484;BME280;2764;48.794;8.326;2023-11-21T01:19:13;76398.56;;;-140.34;100.00
5484;BME280;2764;48.794;8.326;2023-11-21T01:20:15;76398.56;;;-140.34;100.00
5484;BME280;2764;48.794;8.326;2023-11-21T01:21:19;76396.53;;;-140.34;100.00
5484;BME280;2764;48.794;8.326;2023-11-21T01:22:21;76396.53;;;-140.34;100.00
5484;BME280;2764;48.794;8.326;2023-11-21T01:23:28;76404.59;;;-140.34;100.00
5484;BME280;2764;48.794;8.326;2023-11-21T01:24:29;76396.53;;;-140.34;100.00
5484;BME280;2764;48.794;8.326;2023-11-21T01:25:31;76398.56;;;-140.34;100.00
5484;BME280;2764;48.794;8.326;2023-11-21T01:26:33;76408.59;;;-140.34;100.00
5484;BME280;2764;48.794;8.326;2023-11-21T01:27:35;76404.59;;;-140.34;100.00
5484;BME280;2764;48.794;8.326;2023-11-21T01:28:37;76402.56;;;-140.34;100.00
5484;BME280;2764;48.794;8.326;2023-11-21T01:29:40;76406.59;;;-140.34;100.00
5484;BME280;2764;48.794;8.326;2023-11-21T01:30:49;76410.63;;;-140.34;100.00
5484;BME280;2764;48.794;8.326;2023-11-21T01:31:53;76410.63;;;-140.34;100.00
5484;BME280;2764;48.794;8.326;2023-11-21T01:32:55;76410.63;;;-140.34;100.00
5484;BME280;2764;48.794;8.326;2023-11-21T01:34:01;76408.59;;;-140.34;100.00
5484;BME280;2764;48.794;8.326;2023-11-21T01:35:03;76416.66;;;-140.34;100.00
5484;BME280;2764;48.794;8.326;2023-11-21T01:36:08;76428.72;;;-140.34;100.00
5484;BME280;2764;48.794;8.326;2023-11-21T01:37:10;76416.66;;;-140.34;100.00
5484;BME280;2764;48.794;8.326;2023-11-21T01:38:16;76422.69;;;-140.34;100.00
5484;BME280;2764;48.794;8.326;2023-11-21T01:39:20;76426.69;;;-140.34;100.00
5484;BME280;2764;48.794;8.326;2023-11-21T01:40:26;76430.72;;;-140.34;100.00
5484;BME280;2764;48.794;8.326;2023-11-21T01:41:30;76430.72;;;-140.34;100.00
5484;BME280;2764;48.794;8.326;2023-11-21T01:42:35;76422.69;;;-140.34;100.00
5484;BME280;2764;48.794;8.326;2023-11-21T01:43:40;76434.75;;;-140.34;100.00
5484;BME280;2764;48.794;8.326;2023-11-21T01:44:42;76424.69;;;-140.34;100.00
5484;BME280;2764;48.794;8.326;2023-11-21T01:45:46;76422.69;;;-140.34;100.00
5484;BME280;2764;48.794;8.326;2023-11-21T01:46:50;76420.66;;;-140.34;100.00
5484;BME280;2764;48.794;8.326;2023-11-21T01:47:54;76420.66;;;-140.34;100.00
5484;BME280;2764;48.794;8.326;2023-11-21T01:49:00;76420.66;;;-140.34;100.00
5484;BME280;2764;48.794;8.326;2023-11-21T01:50:04;76406.59;;;-140.34;100.00
5484;BME280;2764;48.794;8.326;2023-11-21T01:51:08;76406.59;;;-140.34;100.00
5484;BME280;2764;48.794;8.326;2023-11-21T01:52:11;76410.63;;;-140.34;100.00
5484;BME280;2764;48.794;8.326;2023-11-21T01:53:14;76418.66;;;-140.34;100.00
5484;BME280;2764;48.794;8.326;2023-11-21T01:54:18;76414.63;;;-140.34;100.00
5484;BME280;2764;48.794;8.326;2023-11-21T01:55:21;76418.66;;;-140.34;100.00
5484;BME280;2764;48.794;8.326;2023-11-21T01:56:29;76418.66;;;-140.34;100.00
5484;BME280;2764;48.794;8.326;2023-11-21T01:57:32;76430.72;;;-140.34;100.00
5484;BME280;2764;48.794;8.326;2023-11-21T01:58:39;76428.72;;;-140.34;100.00
5484;BME280;2764;48.794;8.326;2023-11-21T01:59:42;76416.66;;;-140.34;100.00
5484;BME280;2764;48.794;8.326;2023-11-21T02:00:45;76418.66;;;-140.34;100.00
5484;BME280;2764;48.794;8.326;2023-11-21T02:01:48;76410.63;;;-140.34;100.00
5484;BME280;2764;48.794;8.326;2023-11-21T02:02:52;76418.66;;;-140.34;100.00
5484;BME280;2764;48.794;8.326;2023-11-21T02:03:55;76418.66;;;-140.34;100.00
5484;BME280;2764;48.794;8.326;2023-11-21T02:04:57;76416.66;;;-140.34;100.00
5484;BME280;2764;48.794;8.326;2023-11-21T02:05:59;76422.69;;;-140.34;100.00
5484;BME280;2764;48.794;8.326;2023-11-21T02:07:03;76434.75;;;-140.34;100.00
5484;BME280;2764;48.794;8.326;2023-11-21T02:08:08;76424.69;;;-140.34;100.00
5484;BME280;2764;48.794;8.326;2023-11-21T02:09:11;76432.75;;;-140.34;100.00
5484;BME280;2764;48.794;8.326;2023-11-21T02:10:16;76430.72;;;-140.34;100.00
5484;BME280;2764;48.794;8.326;2023-11-21T02:11:19;76426.69;;;-140.34;100.00
5484;BME280;2764;48.794;8.326;2023-11-21T02:12:21;76426.69;;;-140.34;100.00
5484;BME280;2764;48.794;8.326;2023-11-21T02:13:23;76428.72;;;-140.34;100.00
5484;BME280;2764;48.794;8.326;2023-11-21T02:14:26;76430.72;;;-140.34;100.00
5484;BME280;2764;48.794;8.326;2023-11-21T02:15:29;76428.72;;;-140.34;100.00
5484;BME280;2764;48.794;8.326;2023-11-21T02:16:33;76442.78;;;-140.34;100.00
5484;BME280;2764;48.794;8.326;2023-11-21T02:17:36;76432.75;;;-140.34;100.00
5484;BME280;2764;48.794;8.326;2023-11-21T02:18:40;76430.72;;;-140.34;100.00
5484;BME280;2764;48.794;8.326;2023-11-21T02:19:44;76436.75;;;-140.34;100.00
5484;BME280;2764;48.794;8.326;2023-11-21T02:20:51;76436.75;;;-140.34;100.00
5484;BME280;2764;48.794;8.326;2023-11-21T02:21:54;76446.81;;;-140.34;100.00
5484;BME280;2764;48.794;8.326;2023-11-21T02:22:59;76438.78;;;-140.34;100.00
5484;BME280;2764;48.794;8.326;2023-11-21T02:24:04;76434.75;;;-140.34;100.00
5484;BME280;2764;48.794;8.326;2023-11-21T02:25:08;76440.78;;;-140.34;100.00
5484;BME280;2764;48.794;8.326;2023-11-21T02:26:15;76430.72;;;-140.34;100.00
5484;BME280;2764;48.794;8.326;2023-11-21T02:27:18;76430.72;;;-140.34;100.00
5484;BME280;2764;48.794;8.326;2023-11-21T02:28:23;76428.72;;;-140.34;100.00
5484;BME280;2764;48.794;8.326;2023-11-21T02:29:32;76426.69;;;-140.34;100.00
5484;BME280;2764;48.794;8.326;2023-11-21T02:30:35;76426.69;;;-140.34;100.00
5484;BME280;2764;48.794;8.326;2023-11-21T02:31:39;76428.72;;;-140.34;100.00
5484;BME280;2764;48.794;8.326;2023-11-21T02:32:50;76426.69;;;-140.34;100.00
5484;BME280;2764;48.794;8.326;2023-11-21T02:33:54;76434.75;;;-140.34;100.00
5484;BME280;2764;48.794;8.326;2023-11-21T02:34:57;76434.75;;;-140.34;100.00
5484;BME280;2764;48.794;8.326;2023-11-21T02:36:03;76434.75;;;-140.34;100.00
5484;BME280;2764;48.794;8.326;2023-11-21T02:37:05;76434.75;;;-140.34;100.00
5484;BME280;2764;48.794;8.326;2023-11-21T02:38:09;76440.78;;;-140.34;100.00
5484;BME280;2764;48.794;8.326;2023-11-21T02:39:11;76442.78;;;-140.34;100.00
5484;BME280;2764;48.794;8.326;2023-11-21T02:40:14;76446.81;;;-140.34;100.00
5484;BME280;2764;48.794;8.326;2023-11-21T02:41:19;76436.75;;;-140.34;100.00
5484;BME280;2764;48.794;8.326;2023-11-21T02:42:21;76438.78;;;-140.34;100.00
5484;BME280;2764;48.794;8.326;2023-11-21T02:43:23;76436.75;;;-140.34;100.00
5484;BME280;2764;48.794;8.326;2023-11-21T02:44:25;76436.75;;;-140.34;100.00
5484;BME280;2764;48.794;8.326;2023-11-21T02:45:29;76448.81;;;-140.34;100.00
5484;BME280;2764;48.794;8.326;2023-11-21T02:46:31;76448.81;;;-140.34;100.00
5484;BME280;2764;48.794;8.326;2023-11-21T02:47:36;76446.81;;;-140.34;100.00
5484;BME280;2764;48.794;8.326;2023-11-21T02:48:37;76462.91;;;-140.34;100.00
5484;BME280;2764;48.794;8.326;2023-11-21T02:49:40;76450.84;;;-140.34;100.00
5484;BME280;2764;48.794;8.326;2023-11-21T02:50:42;76448.81;;;-140.34;100.00
5484;BME280;2764;48.794;8.326;2023-11-21T02:51:45;76452.84;;;-140.34;100.00
5484;BME280;2764;48.794;8.326;2023-11-21T02:52:50;76454.84;;;-140.34;100.00
5484;BME280;2764;48.794;8.326;2023-11-21T02:54:00;76462.91;;;-140.34;100.00
5484;BME280;2764;48.794;8.326;2023-11-21T02:55:06;76476.97;;;-140.34;100.00
5484;BME280;2764;48.794;8.326;2023-11-21T02:56:10;76464.91;;;-140.34;100.00
5484;BME280;2764;48.794;8.326;2023-11-21T02:57:12;76466.91;;;-140.34;100.00
5484;BME280;2764;48.794;8.326;2023-11-21T02:58:17;76452.84;;;-140.34;100.00
5484;BME280;2764;48.794;8.326;2023-11-21T02:59:20;76460.88;;;-140.34;100.00
5484;BME280;2764;48.794;8.326;2023-11-21T03:00:22;76454.84;;;-140.34;100.00
5484;BME280;2764;48.794;8.326;2023-11-21T03:01:27;76460.88;;;-140.34;100.00
5484;BME280;2764;48.794;8.326;2023-11-21T03:02:31;76458.88;;;-140.34;100.00
5484;BME280;2764;48.794;8.326;2023-11-21T03:03:34;76462.91;;;-140.34;100.00
5484;BME280;2764;48.794;8.326;2023-11-21T03:04:36;76464.91;;;-140.34;100.00
5484;BME280;2764;48.794;8.326;2023-11-21T03:05:40;76456.88;;;-140.34;100.00
5484;BME280;2764;48.794;8.326;2023-11-21T03:06:42;76454.84;;;-140.34;100.00
5484;BME280;2764;48.794;8.326;2023-11-21T03:07:44;76458.88;;;-140.34;100.00
5484;BME280;2764;48.794;8.326;2023-11-21T03:08:47;76450.84;;;-140.34;100.00
5484;BME280;2764;48.794;8.326;2023-11-21T03:09:49;76458.88;;;-140.34;100.00
5484;BME280;2764;48.794;8.326;2023-11-21T03:10:55;76458.88;;;-140.34;100.00
5484;BME280;2764;48.794;8.326;2023-11-21T03:11:58;76448.81;;;-140.34;100.00
5484;BME280;2764;48.794;8.326;2023-11-21T03:13:01;76454.84;;;-140.34;100.00
5484;BME280;2764;48.794;8.326;2023-11-21T03:14:05;76452.84;;;-140.34;100.00
5484;BME280;2764;48.794;8.326;2023-11-21T03:15:10;76454.84;;;-140.34;100.00
5484;BME280;2764;48.794;8.326;2023-11-21T03:16:16;76458.88;;;-140.34;100.00
5484;BME280;2764;48.794;8.326;2023-11-21T03:17:20;76470.94;;;-140.34;100.00
5484;BME280;2764;48.794;8.326;2023-11-21T03:18:22;76454.84;;;-140.34;100.00
5484;BME280;2764;48.794;8.326;2023-11-21T03:19:28;76454.84;;;-140.34;100.00
5484;BME280;2764;48.794;8.326;2023-11-21T03:20:30;76450.84;;;-140.34;100.00
5484;BME280;2764;48.794;8.326;2023-11-21T03:21:34;76448.81;;;-140.34;100.00
5484;BME280;2764;48.794;8.326;2023-11-21T03:22:36;76448.81;;;-140.34;100.00
5484;BME280;2764;48.794;8.326;2023-11-21T03:23:39;76450.84;;;-140.34;100.00
5484;BME280;2764;48.794;8.326;2023-11-21T03:24:42;76440.78;;;-140.34;100.00
5484;BME280;2764;48.794;8.326;2023-11-21T03:25:45;76436.75;;;-140.34;100.00
5484;BME280;2764;48.794;8.326;2023-11-21T03:26:49;76442.78;;;-140.34;100.00
5484;BME280;2764;48.794;8.326;2023-11-21T03:27:53;76440.78;;;-140.34;100.00
5484;BME280;2764;48.794;8.326;2023-11-21T03:28:56;76444.81;;;-140.34;100.00
5484;BME280;2764;48.794;8.326;2023-11-21T03:29:58;76442.78;;;-140.34;100.00
5484;BME280;2764;48.794;8.326;2023-11-21T03:31:00;76444.81;;;-140.34;100.00
5484;BME280;2764;48.794;8.326;2023-11-21T03:32:02;76450.84;;;-140.34;100.00
5484;BME280;2764;48.794;8.326;2023-11-21T03:33:03;76440.78;;;-140.34;100.00
5484;BME280;2764;48.794;8.326;2023-11-21T03:34:11;76438.78;;;-140.34;100.00
5484;BME280;2764;48.794;8.326;2023-11-21T03:35:13;76438.78;;;-140.34;100.00
5484;BME280;2764;48.794;8.326;2023-11-21T03:36:15;76440.78;;;-140.34;100.00
5484;BME280;2764;48.794;8.326;2023-11-21T03:37:17;76440.78;;;-140.34;100.00
5484;BME280;2764;48.794;8.326;2023-11-21T03:38:22;76452.84;;;-140.34;100.00
5484;BME280;2764;48.794;8.326;2023-11-21T03:39:24;76442.78;;;-140.34;100.00
5484;BME280;2764;48.794;8.326;2023-11-21T03:40:27;76442.78;;;-140.34;100.00
5484;BME280;2764;48.794;8.326;2023-11-21T03:41:31;76444.81;;;-140.34;100.00
5484;BME280;2764;48.794;8.326;2023-11-21T03:42:33;76442.78;;;-140.34;100.00
5484;BME280;2764;48.794;8.326;2023-11-21T03:43:35;76466.91;;;-140.34;100.00
5484;BME280;2764;48.794;8.326;2023-11-21T03:44:39;76438.78;;;-140.34;100.00
5484;BME280;2764;48.794;8.326;2023-11-21T03:45:41;76440.78;;;-140.34;100.00
5484;BME280;2764;48.794;8.326;2023-11-21T03:46:43;76446.81;;;-140.34;100.00
5484;BME280;2764;48.794;8.326;2023-11-21T03:47:45;76440.78;;;-140.34;100.00
5484;BME280;2764;48.794;8.326;2023-11-21T03:48:48;76438.78;;;-140.34;100.00
5484;BME280;2764;48.794;8.326;2023-11-21T03:49:51;76444.81;;;-140.34;100.00
5484;BME280;2764;48.794;8.326;2023-11-21T03:50:54;76450.84;;;-140.34;100.00
5484;BME280;2764;48.794;8.326;2023-11-21T03:51:56;76452.84;;;-140.34;100.00
5484;BME280;2764;48.794;8.326;2023-11-21T03:52:58;76458.88;;;-140.34;100.00
5484;BME280;2764;48.794;8.326;2023-11-21T03:54:00;76448.81;;;-140.34;100.00
5484;BME280;2764;48.794;8.326;2023-11-21T03:55:04;76452.84;;;-140.34;100.00
5484;BME280;2764;48.794;8.326;2023-11-21T03:56:06;76450.84;;;-140.34;100.00
5484;BME280;2764;48.794;8.326;2023-11-21T03:57:08;76454.84;;;-140.34;100.00
5484;BME280;2764;48.794;8.326;2023-11-21T03:58:12;76452.84;;;-140.34;100.00
5484;BME280;2764;48.794;8.326;2023-11-21T03:59:18;76462.91;;;-140.34;100.00
5484;BME280;2764;48.794;8.326;2023-11-21T04:00:22;76450.84;;;-140.34;100.00
5484;BME280;2764;48.794;8.326;2023-11-21T04:01:26;76456.88;;;-140.34;100.00
5484;BME280;2764;48.794;8.326;2023-11-21T04:02:28;76474.97;;;-140.34;100.00
5484;BME280;2764;48.794;8.326;2023-11-21T04:03:31;76462.91;;;-140.34;100.00
5484;BME280;2764;48.794;8.326;2023-11-21T04:04:36;76454.84;;;-140.34;100.00
5484;BME280;2764;48.794;8.326;2023-11-21T04:05:39;76456.88;;;-140.34;100.00
5484;BME280;2764;48.794;8.326;2023-11-21T04:06:42;76464.91;;;-140.34;100.00
5484;BME280;2764;48.794;8.326;2023-11-21T04:07:49;76460.88;;;-140.34;100.00
5484;BME280;2764;48.794;8.326;2023-11-21T04:08:56;76462.91;;;-140.34;100.00
5484;BME280;2764;48.794;8.326;2023-11-21T04:09:59;76462.91;;;-140.34;100.00
5484;BME280;2764;48.794;8.326;2023-11-21T04:11:02;76466.91;;;-140.34;100.00
5484;BME280;2764;48.794;8.326;2023-11-21T04:12:04;76460.88;;;-140.34;100.00
5484;BME280;2764;48.794;8.326;2023-11-21T04:13:08;76460.88;;;-140.34;100.00
5484;BME280;2764;48.794;8.326;2023-11-21T04:14:10;76460.88;;;-140.34;100.00
5484;BME280;2764;48.794;8.326;2023-11-21T04:15:16;76470.94;;;-140.34;100.00
5484;BME280;2764;48.794;8.326;2023-11-21T04:16:21;76466.91;;;-140.34;100.00
5484;BME280;2764;48.794;8.326;2023-11-21T04:17:26;76472.94;;;-140.34;100.00
5484;BME280;2764;48.794;8.326;2023-11-21T04:18:28;76468.94;;;-140.34;100.00
5484;BME280;2764;48.794;8.326;2023-11-21T04:19:33;76464.91;;;-140.34;100.00
5484;BME280;2764;48.794;8.326;2023-11-21T04:20:36;76466.91;;;-140.34;100.00
5484;BME280;2764;48.794;8.326;2023-11-21T04:21:38;76468.94;;;-140.34;100.00
5484;BME280;2764;48.794;8.326;2023-11-21T04:22:43;76468.94;;;-140.34;100.00
5484;BME280;2764;48.794;8.326;2023-11-21T04:23:47;76478.97;;;-140.34;100.00
5484;BME280;2764;48.794;8.326;2023-11-21T04:24:50;76474.97;;;-140.34;100.00
5484;BME280;2764;48.794;8.326;2023-11-21T04:25:52;76487.03;;;-140.34;100.00
5484;BME280;2764;48.794;8.326;2023-11-21T04:26:58;76489.03;;;-140.34;100.00
5484;BME280;2764;48.794;8.326;2023-11-21T04:28:05;76476.97;;;-140.34;100.00
5484;BME280;2764;48.794;8.326;2023-11-21T04:29:07;76476.97;;;-140.34;100.00
5484;BME280;2764;48.794;8.326;2023-11-21T04:30:12;76481.00;;;-140.34;100.00
5484;BME280;2764;48.794;8.326;2023-11-21T04:31:14;76501.09;;;-140.34;100.00
5484;BME280;2764;48.794;8.326;2023-11-21T04:32:19;76481.00;;;-140.34;100.00
5484;BME280;2764;48.794;8.326;2023-11-21T04:33:21;76478.97;;;-140.34;100.00
5484;BME280;2764;48.794;8.326;2023-11-21T04:34:24;76476.97;;;-140.34;100.00
5484;BME280;2764;48.794;8.326;2023-11-21T04:35:26;76487.03;;;-140.34;100.00
5484;BME280;2764;48.794;8.326;2023-11-21T04:36:30;76476.97;;;-140.34;100.00
5484;BME280;2764;48.794;8.326;2023-11-21T04:37:37;76483.00;;;-140.34;100.00
5484;BME280;2764;48.794;8.326;2023-11-21T04:38:41;76474.97;;;-140.34;100.00
5484;BME280;2764;48.794;8.326;2023-11-21T04:39:45;76478.97;;;-140.34;100.00
5484;BME280;2764;48.794;8.326;2023-11-21T04:40:48;76478.97;;;-140.34;100.00
5484;BME280;2764;48.794;8.326;2023-11-21T04:41:51;76483.00;;;-140.34;100.00
5484;BME280;2764;48.794;8.326;2023-11-21T04:42:53;76487.03;;;-140.34;100.00
5484;BME280;2764;48.794;8.326;2023-11-21T04:43:55;76483.00;;;-140.34;100.00
5484;BME280;2764;48.794;8.326;2023-11-21T04:44:57;76483.00;;;-140.34;100.00
5484;BME280;2764;48.794;8.326;2023-11-21T04:45:59;76481.00;;;-140.34;100.00
5484;BME280;2764;48.794;8.326;2023-11-21T04:47:01;76483.00;;;-140.34;100.00
5484;BME280;2764;48.794;8.326;2023-11-21T04:48:07;76481.00;;;-140.34;100.00
5484;BME280;2764;48.794;8.326;2023-11-21T04:49:12;76483.00;;;-140.34;100.00
5484;BME280;2764;48.794;8.326;2023-11-21T04:50:13;76485.00;;;-140.34;100.00
5484;BME280;2764;48.794;8.326;2023-11-21T04:51:16;76483.00;;;-140.34;100.00
5484;BME280;2764;48.794;8.326;2023-11-21T04:52:19;76483.00;;;-140.34;100.00
5484;BME280;2764;48.794;8.326;2023-11-21T04:53:22;76483.00;;;-140.34;100.00
5484;BME280;2764;48.794;8.326;2023-11-21T04:54:25;76485.00;;;-140.34;100.00
5484;BME280;2764;48.794;8.326;2023-11-21T04:55:29;76478.97;;;-140.34;100.00
5484;BME280;2764;48.794;8.326;2023-11-21T04:56:31;76483.00;;;-140.34;100.00
5484;BME280;2764;48.794;8.326;2023-11-21T04:57:33;76481.00;;;-140.34;100.00
5484;BME280;2764;48.794;8.326;2023-11-21T04:58:34;76478.97;;;-140.34;100.00
5484;BME280;2764;48.794;8.326;2023-11-21T04:59:38;76483.00;;;-140.34;100.00
5484;BME280;2764;48.794;8.326;2023-11-21T05:00:40;76485.00;;;-140.34;100.00
5484;BME280;2764;48.794;8.326;2023-11-21T05:01:42;76481.00;;;-140.34;100.00
5484;BME280;2764;48.794;8.326;2023-11-21T05:02:47;76489.03;;;-140.34;100.00
5484;BME280;2764;48.794;8.326;2023-11-21T05:03:55;76511.16;;;-140.34;100.00
5484;BME280;2764;48.794;8.326;2023-11-21T05:04:59;76489.03;;;-140.34;100.00
5484;BME280;2764;48.794;8.326;2023-11-21T05:06:05;76489.03;;;-140.34;100.00
5484;BME280;2764;48.794;8.326;2023-11-21T05:07:06;76495.06;;;-140.34;100.00
5484;BME280;2764;48.794;8.326;2023-11-21T05:08:13;76495.06;;;-140.34;100.00
5484;BME280;2764;48.794;8.326;2023-11-21T05:09:15;76499.09;;;-140.34;100.00
5484;BME280;2764;48.794;8.326;2023-11-21T05:10:17;76495.06;;;-140.34;100.00
5484;BME280;2764;48.794;8.326;2023-11-21T05:11:24;76495.06;;;-140.34;100.00
5484;BME280;2764;48.794;8.326;2023-11-21T05:12:26;76503.09;;;-140.34;100.00
5484;BME280;2764;48.794;8.326;2023-11-21T05:13:28;76485.00;;;-140.34;100.00
5484;BME280;2764;48.794;8.326;2023-11-21T05:14:31;76515.16;;;-140.34;100.00
5484;BME280;2764;48.794;8.326;2023-11-21T05:15:34;76495.06;;;-140.34;100.00
5484;BME280;2764;48.794;8.326;2023-11-21T05:16:39;76497.06;;;-140.34;100.00
5484;BME280;2764;48.794;8.326;2023-11-21T05:17:41;76497.06;;;-140.34;100.00
5484;BME280;2764;48.794;8.326;2023-11-21T05:18:49;76503.09;;;-140.34;100.00
5484;BME280;2764;48.794;8.326;2023-11-21T05:19:56;76501.09;;;-140.34;100.00
5484;BME280;2764;48.794;8.326;2023-11-21T05:21:00;76505.13;;;-140.34;100.00
5484;BME280;2764;48.794;8.326;2023-11-21T05:22:02;76503.09;;;-140.34;100.00
5484;BME280;2764;48.794;8.326;2023-11-21T05:23:07;76515.16;;;-140.34;100.00
5484;BME280;2764;48.794;8.326;2023-11-21T05:24:09;76521.19;;;-140.34;100.00
5484;BME280;2764;48.794;8.326;2023-11-21T05:25:13;76515.16;;;-140.34;100.00
5484;BME280;2764;48.794;8.326;2023-11-21T05:26:14;76515.16;;;-140.34;100.00
5484;BME280;2764;48.794;8.326;2023-11-21T05:27:17;76513.16;;;-140.34;100.00
5484;BME280;2764;48.794;8.326;2023-11-21T05:28:22;76513.16;;;-140.34;100.00
5484;BME280;2764;48.794;8.326;2023-11-21T05:29:26;76519.19;;;-140.34;100.00
5484;BME280;2764;48.794;8.326;2023-11-21T05:30:29;76511.16;;;-140.34;100.00
5484;BME280;2764;48.794;8.326;2023-11-21T05:31:32;76515.16;;;-140.34;100.00